Time;durP1;ratioP1;P1;durP2;ratioP2;P2;SDS_P1;SDS_P2;PMS_P1;PMS_P2;Temp;Humidity;BMP_temperature;BMP_pressure;BME280_temperature;BME280_humidity;BME280_pressure;Samples;Min_cycle;Max_cycle;Signal;HPM_P1;HPM_P2
2021/12/02 00:00:04;;;;;;;0.30;0.30;;;2.60;99.90;;;;;;2072419;28;20191;-66
2021/12/02 00:01:05;;;;;;;0.40;0.40;;;2.60;99.90;;;;;;2072663;28;20279;-64
2021/12/02 00:02:09;;;;;;;0.47;0.40;;;2.60;99.90;;;;;;2073248;28;20726;-65
2021/12/02 00:03:09;;;;;;;0.35;0.35;;;2.60;99.90;;;;;;2073199;28;20665;-64
2021/12/02 00:04:10;;;;;;;0.40;0.40;;;2.60;99.90;;;;;;2073127;28;20254;-66
2021/12/02 00:05:11;;;;;;;0.80;0.50;;;2.60;99.90;;;;;;2072641;28;20649;-65
2021/12/02 00:06:16;;;;;;;1.00;0.50;;;2.60;99.90;;;;;;2072583;28;20224;-65
2021/12/02 00:07:17;;;;;;;0.77;0.40;;;2.60;99.90;;;;;;2073302;28;20184;-66
2021/12/02 00:08:18;;;;;;;0.47;0.47;;;2.50;99.90;;;;;;2073106;28;20657;-65
2021/12/02 00:09:18;;;;;;;0.68;0.50;;;2.50;99.90;;;;;;2073116;28;20565;-65
2021/12/02 00:10:19;;;;;;;0.57;0.50;;;2.50;99.90;;;;;;2072840;28;20185;-65
2021/12/02 00:11:20;;;;;;;0.97;0.70;;;2.50;99.90;;;;;;2073268;28;20665;-65
2021/12/02 00:12:21;;;;;;;0.90;0.70;;;2.50;99.90;;;;;;2073124;28;20561;-65
2021/12/02 00:13:25;;;;;;;0.50;0.40;;;2.50;99.90;;;;;;2073192;28;20180;-66
2021/12/02 00:14:27;;;;;;;0.50;0.50;;;2.40;99.90;;;;;;2073147;28;20175;-65
2021/12/02 00:15:48;;;;;;;1.58;0.40;;;2.40;99.90;;;;;;2073048;28;20184;-66
2021/12/02 00:17:03;;;;;;;0.60;0.60;;;2.40;99.90;;;;;;2072524;28;20167;-65
2021/12/02 00:22:03;;;;;;;0.45;0.45;;;2.40;99.90;;;;;;2068151;28;20231;-65
2021/12/02 00:23:29;;;;;;;0.60;0.60;;;2.40;99.90;;;;;;2067206;28;20271;-65
2021/12/02 00:24:35;;;;;;;0.93;0.60;;;2.40;99.90;;;;;;2072730;28;20559;-65
2021/12/02 00:25:36;;;;;;;0.50;0.50;;;2.40;99.90;;;;;;2072395;28;20183;-65
2021/12/02 00:26:39;;;;;;;1.13;0.50;;;2.40;99.90;;;;;;2072507;28;20175;-68
2021/12/02 00:27:42;;;;;;;0.50;0.50;;;2.40;99.90;;;;;;2072429;28;20205;-65
2021/12/02 00:28:43;;;;;;;0.88;0.60;;;2.40;99.90;;;;;;2072441;28;20191;-65
2021/12/02 00:29:46;;;;;;;0.47;0.43;;;2.30;99.90;;;;;;2064103;28;20185;-66
2021/12/02 00:30:47;;;;;;;0.80;0.50;;;2.30;99.90;;;;;;2072377;28;20225;-67
2021/12/02 00:31:52;;;;;;;1.10;0.60;;;2.30;99.90;;;;;;2072987;28;20214;-67
2021/12/02 00:32:55;;;;;;;3.08;0.75;;;2.30;99.90;;;;;;2071939;28;20193;-66
2021/12/02 00:34:03;;;;;;;2.30;0.68;;;2.30;99.90;;;;;;2072119;28;20663;-66
2021/12/02 00:35:04;;;;;;;0.50;0.50;;;2.30;99.90;;;;;;2065353;28;20223;-66
2021/12/02 00:36:05;;;;;;;0.70;0.60;;;2.30;99.90;;;;;;2072403;28;20655;-67
2021/12/02 00:37:06;;;;;;;1.20;0.57;;;2.30;99.90;;;;;;2072943;28;20241;-66
2021/12/02 00:38:07;;;;;;;2.43;0.60;;;2.30;99.90;;;;;;2072463;28;20534;-66
2021/12/02 00:39:18;;;;;;;3.65;0.80;;;2.30;99.90;;;;;;2072361;28;20184;-66
2021/12/02 00:40:18;;;;;;;1.73;0.60;;;2.30;99.90;;;;;;2072347;28;20175;-66
2021/12/02 00:41:24;;;;;;;1.07;0.87;;;2.40;99.90;;;;;;2073000;28;20649;-67
2021/12/02 00:42:25;;;;;;;0.77;0.75;;;2.40;99.90;;;;;;2072949;28;20167;-66
2021/12/02 00:43:27;;;;;;;0.93;0.82;;;2.40;99.90;;;;;;2072339;28;20234;-66
2021/12/02 00:44:31;;;;;;;0.85;0.63;;;2.40;99.90;;;;;;2064532;28;20197;-67
2021/12/02 00:45:33;;;;;;;0.95;0.70;;;2.40;99.90;;;;;;2064788;28;20206;-66
2021/12/02 00:46:35;;;;;;;2.45;0.80;;;2.40;99.90;;;;;;2072384;28;20202;-66
2021/12/02 00:47:37;;;;;;;3.08;0.80;;;2.40;99.90;;;;;;2072403;28;20201;-67
2021/12/02 00:48:38;;;;;;;1.85;0.85;;;2.40;99.90;;;;;;2072364;28;20176;-67
2021/12/02 00:49:40;;;;;;;1.13;0.70;;;2.40;99.90;;;;;;2072097;28;20184;-66
2021/12/02 00:50:48;;;;;;;2.13;0.80;;;2.40;99.90;;;;;;2072944;28;20763;-65
2021/12/02 00:51:56;;;;;;;2.17;0.80;;;2.40;99.90;;;;;;2073068;28;20219;-65
2021/12/02 00:52:57;;;;;;;0.90;0.80;;;2.40;99.90;;;;;;2072971;28;20164;-65
2021/12/02 00:54:10;;;;;;;1.45;0.77;;;2.50;99.90;;;;;;2072393;28;20188;-65
2021/12/02 00:55:11;;;;;;;0.73;0.70;;;2.60;99.90;;;;;;2072502;28;20585;-65
2021/12/02 00:56:16;;;;;;;1.23;0.70;;;2.50;99.90;;;;;;2072404;28;20190;-65
2021/12/02 00:57:17;;;;;;;0.73;0.70;;;2.60;99.90;;;;;;2072367;28;20205;-64
2021/12/02 00:58:23;;;;;;;1.55;0.80;;;2.60;99.90;;;;;;2072366;28;20179;-65
2021/12/02 00:59:29;;;;;;;1.80;0.98;;;2.50;99.90;;;;;;2072352;28;20572;-65
2021/12/02 01:00:31;;;;;;;3.33;0.98;;;2.50;99.90;;;;;;2072364;28;20264;-66
2021/12/02 01:01:36;;;;;;;1.85;0.90;;;2.50;99.90;;;;;;2072920;28;20185;-65
2021/12/02 01:02:37;;;;;;;0.60;0.60;;;2.60;99.90;;;;;;2073091;28;20187;-65
2021/12/02 01:03:39;;;;;;;1.42;0.70;;;2.60;99.90;;;;;;2072255;28;20533;-66
2021/12/02 01:04:40;;;;;;;0.77;0.50;;;2.60;99.90;;;;;;2072322;28;20266;-66
2021/12/02 01:05:41;;;;;;;1.00;0.50;;;2.60;99.90;;;;;;2072357;28;20175;-65
2021/12/02 01:06:43;;;;;;;1.85;0.52;;;2.60;99.90;;;;;;2072018;28;20251;-66
2021/12/02 01:07:43;;;;;;;1.08;0.60;;;2.60;99.90;;;;;;2072337;28;20625;-66
2021/12/02 01:08:44;;;;;;;0.83;0.60;;;2.60;99.90;;;;;;2072818;28;20175;-66
2021/12/02 01:09:48;;;;;;;0.77;0.77;;;2.60;99.90;;;;;;2072145;28;20190;-66
2021/12/02 01:10:49;;;;;;;1.40;0.98;;;2.60;99.90;;;;;;2072337;28;20209;-66
2021/12/02 01:11:54;;;;;;;0.63;0.60;;;2.60;99.90;;;;;;2073057;28;20182;-66
2021/12/02 01:12:56;;;;;;;2.35;0.50;;;2.60;99.90;;;;;;2073010;28;20212;-66
2021/12/02 01:13:58;;;;;;;0.57;0.57;;;2.70;99.90;;;;;;2072270;28;20184;-66
2021/12/02 01:14:58;;;;;;;0.40;0.40;;;2.60;99.90;;;;;;2072349;28;20661;-66
2021/12/02 01:16:00;;;;;;;0.70;0.50;;;2.70;99.90;;;;;;2072761;28;20189;-66
2021/12/02 01:17:01;;;;;;;0.60;0.60;;;2.70;99.90;;;;;;2072271;28;20566;-65
2021/12/02 01:18:02;;;;;;;0.90;0.70;;;2.70;99.90;;;;;;2072419;28;20194;-65
2021/12/02 01:19:07;;;;;;;1.75;0.60;;;2.70;99.90;;;;;;2072202;28;20175;-66
2021/12/02 01:20:09;;;;;;;0.73;0.60;;;2.70;99.90;;;;;;2072031;28;20184;-66
2021/12/02 01:21:16;;;;;;;2.40;0.50;;;2.70;99.90;;;;;;2072245;28;20711;-66
2021/12/02 01:22:17;;;;;;;1.35;0.90;;;2.70;99.90;;;;;;2065156;28;20164;-66
2021/12/02 01:23:21;;;;;;;0.70;0.65;;;2.70;99.90;;;;;;2064099;28;20258;-66
2021/12/02 01:24:23;;;;;;;1.38;0.70;;;2.70;99.30;;;;;;2064641;28;20177;-66
2021/12/02 01:25:23;;;;;;;0.80;0.70;;;2.70;99.70;;;;;;2064317;28;20217;-65
2021/12/02 01:26:27;;;;;;;0.50;0.50;;;2.70;99.30;;;;;;2064275;28;20189;-66
2021/12/02 01:27:28;;;;;;;0.80;0.70;;;2.70;99.10;;;;;;2072351;28;20172;-65
2021/12/02 01:28:31;;;;;;;1.42;0.70;;;2.70;99.30;;;;;;2072928;28;20187;-66
2021/12/02 01:29:34;;;;;;;1.15;0.68;;;2.70;99.70;;;;;;2072720;28;20177;-66
2021/12/02 01:30:35;;;;;;;1.02;0.93;;;2.60;99.90;;;;;;2072029;28;20582;-66
2021/12/02 01:31:36;;;;;;;1.03;0.70;;;2.70;99.90;;;;;;2072286;28;20226;-65
2021/12/02 01:32:39;;;;;;;0.80;0.80;;;2.60;99.50;;;;;;2072828;28;20206;-66
2021/12/02 01:33:41;;;;;;;0.98;0.80;;;2.60;99.90;;;;;;2072270;28;20264;-66
2021/12/02 01:34:47;;;;;;;0.93;0.82;;;2.60;99.90;;;;;;2064410;28;20183;-66
2021/12/02 01:35:56;;;;;;;1.85;0.80;;;2.60;99.30;;;;;;2072289;28;20251;-66
2021/12/02 01:36:57;;;;;;;2.97;0.80;;;2.60;99.60;;;;;;2072940;28;20176;-66
2021/12/02 01:37:58;;;;;;;1.47;0.80;;;2.60;99.90;;;;;;2072823;28;20332;-66
2021/12/02 01:38:59;;;;;;;0.80;0.80;;;2.50;99.90;;;;;;2072269;28;20258;-66
2021/12/02 01:40:00;;;;;;;1.02;0.75;;;2.50;99.90;;;;;;2071925;28;20184;-66
2021/12/02 01:41:04;;;;;;;0.80;0.73;;;2.50;99.90;;;;;;2072833;28;20279;-66
2021/12/02 01:42:13;;;;;;;1.10;0.70;;;2.40;99.90;;;;;;2072764;28;20184;-66
2021/12/02 01:43:19;;;;;;;0.98;0.70;;;2.40;99.90;;;;;;2072788;28;20238;-66
2021/12/02 01:44:23;;;;;;;0.70;0.65;;;2.30;99.90;;;;;;2072363;28;20176;-66
2021/12/02 01:45:27;;;;;;;1.42;0.77;;;2.30;99.90;;;;;;2073635;28;20243;-67
2021/12/02 01:46:28;;;;;;;1.38;0.88;;;2.30;99.90;;;;;;2074262;28;20176;-65
2021/12/02 01:47:31;;;;;;;2.60;0.70;;;2.20;99.90;;;;;;2074270;28;20185;-66
2021/12/02 01:48:35;;;;;;;0.55;0.55;;;2.20;99.90;;;;;;2073685;28;20422;-66
2021/12/02 01:49:42;;;;;;;1.13;0.70;;;2.20;99.90;;;;;;2073449;28;20186;-66
2021/12/02 01:50:44;;;;;;;1.27;0.77;;;2.20;99.90;;;;;;2066563;28;20251;-66
2021/12/02 01:51:50;;;;;;;1.92;0.88;;;2.30;99.90;;;;;;2065534;28;20268;-66
2021/12/02 01:53:00;;;;;;;1.20;0.70;;;2.30;99.90;;;;;;2058180;28;20702;-66
2021/12/02 01:54:08;;;;;;;1.65;0.80;;;2.20;99.90;;;;;;2066875;28;20184;-66
2021/12/02 01:55:14;;;;;;;1.58;0.80;;;2.10;99.90;;;;;;2074351;28;20167;-66
2021/12/02 01:56:17;;;;;;;2.90;0.80;;;2.10;99.90;;;;;;2074092;28;20222;-66
2021/12/02 01:57:33;;;;;;;1.23;0.70;;;2.00;99.90;;;;;;2074211;28;20680;-66
2021/12/02 01:58:46;;;;;;;0.98;0.70;;;2.00;99.90;;;;;;2074189;28;20209;-66
2021/12/02 01:59:51;;;;;;;2.78;0.85;;;2.00;99.90;;;;;;2073847;28;20549;-67
2021/12/02 02:00:55;;;;;;;0.95;0.75;;;2.00;99.90;;;;;;2081615;28;20215;-67
2021/12/02 02:01:58;;;;;;;0.77;0.70;;;1.90;99.90;;;;;;2073683;28;20183;-66
2021/12/02 02:03:02;;;;;;;3.20;0.77;;;1.80;99.90;;;;;;2065686;28;20695;-66
2021/12/02 02:04:03;;;;;;;0.70;0.70;;;1.80;99.90;;;;;;2073617;28;20655;-66
2021/12/02 02:05:11;;;;;;;3.70;0.87;;;1.80;99.90;;;;;;2074191;28;20180;-67
2021/12/02 02:06:14;;;;;;;0.90;0.70;;;1.80;99.90;;;;;;2073557;28;20195;-67
2021/12/02 02:07:17;;;;;;;1.15;0.70;;;1.80;99.90;;;;;;2066449;28;20194;-66
2021/12/02 02:08:21;;;;;;;1.42;0.60;;;1.70;99.90;;;;;;2073451;28;20233;-66
2021/12/02 02:09:25;;;;;;;1.33;0.60;;;1.70;99.90;;;;;;2073291;28;20318;-66
2021/12/02 02:10:31;;;;;;;0.60;0.60;;;1.70;99.90;;;;;;2073054;28;20227;-66
2021/12/02 02:11:32;;;;;;;0.52;0.52;;;1.70;99.90;;;;;;2074123;28;20274;-66
2021/12/02 02:12:33;;;;;;;4.65;0.88;;;1.70;99.90;;;;;;2073291;28;20513;-66
2021/12/02 02:13:34;;;;;;;1.48;0.70;;;1.70;99.90;;;;;;2073554;28;20278;-66
2021/12/02 02:14:37;;;;;;;1.80;0.83;;;1.80;99.90;;;;;;2073374;28;20235;-66
2021/12/02 02:15:43;;;;;;;1.75;0.77;;;1.80;99.90;;;;;;2073482;28;20442;-66
2021/12/02 02:16:44;;;;;;;1.77;0.60;;;1.80;99.90;;;;;;2066078;28;20238;-66
2021/12/02 02:17:56;;;;;;;1.33;0.80;;;1.90;99.90;;;;;;2073356;28;20197;-66
2021/12/02 02:18:57;;;;;;;0.60;0.60;;;1.90;99.90;;;;;;2074103;28;20187;-66
2021/12/02 02:19:59;;;;;;;1.83;0.90;;;1.90;99.90;;;;;;2073828;28;20188;-66
2021/12/02 02:21:02;;;;;;;0.85;0.60;;;2.00;99.90;;;;;;2074283;28;20210;-66
2021/12/02 02:22:04;;;;;;;0.80;0.60;;;2.00;99.90;;;;;;2074339;28;20606;-66
2021/12/02 02:23:09;;;;;;;1.55;0.80;;;2.00;99.90;;;;;;2074081;28;20198;-66
2021/12/02 02:24:13;;;;;;;1.33;0.75;;;2.00;99.90;;;;;;2073508;28;20633;-66
2021/12/02 02:25:15;;;;;;;2.65;0.80;;;2.00;99.90;;;;;;2066211;28;20244;-66
2021/12/02 02:26:23;;;;;;;3.45;1.00;;;2.00;99.90;;;;;;2073445;28;20703;-67
2021/12/02 02:27:23;;;;;;;1.52;0.70;;;2.00;99.90;;;;;;2073479;28;20255;-66
2021/12/02 02:28:25;;;;;;;0.70;0.60;;;2.10;99.90;;;;;;2073370;28;20172;-67
2021/12/02 02:29:25;;;;;;;2.50;0.82;;;2.10;99.90;;;;;;2073988;28;20217;-66
2021/12/02 02:30:26;;;;;;;1.30;0.80;;;2.10;99.90;;;;;;2073748;28;20201;-66
2021/12/02 02:31:29;;;;;;;1.73;0.70;;;2.10;99.90;;;;;;2073982;28;20236;-66
2021/12/02 02:32:33;;;;;;;2.40;1.00;;;2.10;99.90;;;;;;2073341;28;20576;-66
2021/12/02 02:33:37;;;;;;;4.22;0.85;;;2.10;99.90;;;;;;2073354;28;20255;-66
2021/12/02 02:34:37;;;;;;;1.45;0.70;;;2.10;99.90;;;;;;2073484;28;20267;-65
2021/12/02 02:35:44;;;;;;;1.13;0.77;;;2.10;99.90;;;;;;2073313;28;20186;-66
2021/12/02 02:36:53;;;;;;;3.53;0.90;;;2.10;99.90;;;;;;2074035;28;20173;-66
2021/12/02 02:37:54;;;;;;;0.63;0.63;;;2.10;99.90;;;;;;2073883;28;20176;-66
2021/12/02 02:38:56;;;;;;;0.73;0.70;;;2.20;99.90;;;;;;2073894;28;20207;-66
2021/12/02 02:39:57;;;;;;;2.92;0.90;;;2.20;99.90;;;;;;2073110;28;20183;-67
2021/12/02 02:41:00;;;;;;;2.33;0.95;;;2.20;99.90;;;;;;2073211;28;20281;-66
2021/12/02 02:42:03;;;;;;;1.05;0.80;;;2.20;99.90;;;;;;2073827;28;20241;-66
2021/12/02 02:43:07;;;;;;;3.58;1.08;;;2.20;99.90;;;;;;2073756;28;20192;-66
2021/12/02 02:44:09;;;;;;;1.15;0.77;;;2.20;99.90;;;;;;2073722;28;20187;-66
2021/12/02 02:45:09;;;;;;;0.68;0.68;;;2.20;99.90;;;;;;2073319;28;20183;-65
2021/12/02 02:46:24;;;;;;;0.80;0.70;;;2.20;99.90;;;;;;2073340;28;20183;-66
2021/12/02 02:47:27;;;;;;;1.02;0.70;;;2.20;99.90;;;;;;2074047;28;20577;-66
2021/12/02 02:48:30;;;;;;;1.25;0.70;;;2.20;99.90;;;;;;2073767;28;20255;-67
2021/12/02 02:49:30;;;;;;;1.42;0.90;;;2.20;99.90;;;;;;2073651;28;20175;-65
2021/12/02 02:50:33;;;;;;;1.50;0.70;;;2.20;99.90;;;;;;2073626;28;20231;-66
2021/12/02 02:51:36;;;;;;;3.50;1.00;;;2.20;99.90;;;;;;2073212;28;20188;-66
2021/12/02 02:52:37;;;;;;;1.00;0.57;;;2.20;99.90;;;;;;2065510;28;20773;-66
2021/12/02 02:53:38;;;;;;;1.53;1.17;;;2.20;99.90;;;;;;2073229;28;20297;-65
2021/12/02 02:54:39;;;;;;;1.00;0.85;;;2.20;99.90;;;;;;2073613;28;20560;-66
2021/12/02 02:55:41;;;;;;;1.37;0.97;;;2.20;99.90;;;;;;2073537;28;20190;-66
2021/12/02 02:57:06;;;;;;;1.65;0.90;;;2.20;99.90;;;;;;2073084;28;20656;-66
2021/12/02 02:58:31;;;;;;;1.05;0.90;;;2.20;99.90;;;;;;2073822;28;20194;-66
2021/12/02 03:00:40;;;;;;;2.72;1.13;;;2.20;99.90;;;;;;2073543;28;20715;-65
2021/12/02 03:03:31;;;;;;;1.38;0.80;;;2.10;99.90;;;;;;2073716;28;20179;-65
2021/12/02 03:04:31;;;;;;;0.90;0.75;;;2.10;99.90;;;;;;2072197;28;20688;-65
2021/12/02 03:05:52;;;;;;;1.90;0.75;;;2.00;99.90;;;;;;2073387;28;20167;-65
2021/12/02 03:06:58;;;;;;;2.35;0.95;;;2.00;99.90;;;;;;2073212;28;20255;-66
2021/12/02 03:08:10;;;;;;;1.52;0.80;;;2.00;99.90;;;;;;2073158;28;20176;-63
2021/12/02 03:11:52;;;;;;;1.13;0.77;;;2.00;99.90;;;;;;2073322;28;20185;-66
2021/12/02 03:12:59;;;;;;;2.25;0.73;;;2.00;99.90;;;;;;2065011;28;20173;-66
2021/12/02 03:14:08;;;;;;;1.17;0.90;;;2.10;99.90;;;;;;2059595;28;20169;-66
2021/12/02 03:17:31;;;;;;;1.33;0.80;;;2.10;99.90;;;;;;2064936;28;20170;-66
2021/12/02 03:18:32;;;;;;;2.47;1.05;;;2.00;99.90;;;;;;2065175;28;20208;-66
2021/12/02 03:19:34;;;;;;;2.20;1.00;;;2.00;99.90;;;;;;2065514;28;20181;-64
2021/12/02 03:20:35;;;;;;;2.75;1.17;;;2.00;99.90;;;;;;2064835;28;20779;-66
2021/12/02 03:21:36;;;;;;;2.17;1.20;;;2.00;99.90;;;;;;2064808;28;20300;-66
2021/12/02 03:22:37;;;;;;;2.37;1.03;;;2.00;99.90;;;;;;2065543;28;20565;-66
2021/12/02 03:24:00;;;;;;;2.25;1.10;;;2.10;99.90;;;;;;2064838;28;20215;-65
2021/12/02 03:25:01;;;;;;;2.10;1.20;;;2.10;99.90;;;;;;2060042;28;20196;-65
2021/12/02 03:26:02;;;;;;;1.67;0.90;;;2.10;99.90;;;;;;2064920;28;20219;-66
2021/12/02 03:27:03;;;;;;;1.43;0.77;;;2.00;99.90;;;;;;2065443;28;20769;-65
2021/12/02 03:28:05;;;;;;;1.52;0.80;;;2.10;99.90;;;;;;2064772;28;20237;-66
2021/12/02 03:29:05;;;;;;;1.63;0.73;;;2.10;99.90;;;;;;2064940;28;20232;-66
2021/12/02 03:30:07;;;;;;;1.03;0.90;;;2.00;99.90;;;;;;2064485;28;20184;-66
2021/12/02 03:31:11;;;;;;;1.10;1.00;;;2.10;99.90;;;;;;2064964;28;20431;-66
2021/12/02 03:32:12;;;;;;;2.42;1.10;;;2.10;99.90;;;;;;2064710;28;20184;-66
2021/12/02 03:33:13;;;;;;;3.00;1.17;;;2.00;99.90;;;;;;2064869;28;20179;-66
2021/12/02 03:34:13;;;;;;;1.07;0.87;;;2.00;99.90;;;;;;2065362;28;20184;-66
2021/12/02 03:35:14;;;;;;;0.80;0.70;;;2.00;99.90;;;;;;2064483;28;20173;-66
2021/12/02 03:36:16;;;;;;;4.50;0.90;;;2.00;99.90;;;;;;2072617;28;20203;-66
2021/12/02 03:37:18;;;;;;;0.75;0.70;;;2.00;99.90;;;;;;2072876;28;20176;-65
2021/12/02 03:38:18;;;;;;;0.70;0.70;;;2.00;99.90;;;;;;2064744;28;20181;-66
2021/12/02 03:39:19;;;;;;;2.73;1.00;;;2.00;99.90;;;;;;2072811;28;20644;-65
2021/12/02 03:40:20;;;;;;;2.13;0.80;;;2.10;99.90;;;;;;2073176;28;20596;-66
2021/12/02 03:41:21;;;;;;;1.00;0.70;;;2.10;99.90;;;;;;2072899;28;20426;-66
2021/12/02 03:42:22;;;;;;;1.67;0.88;;;2.10;99.40;;;;;;2072710;28;20177;-66
2021/12/02 03:43:22;;;;;;;1.10;0.70;;;2.10;99.50;;;;;;2072664;28;22677;-66
2021/12/02 03:44:24;;;;;;;1.83;0.50;;;2.10;99.30;;;;;;2072764;28;20225;-66
2021/12/02 03:45:25;;;;;;;2.90;0.90;;;2.10;99.00;;;;;;2072975;28;20182;-66
2021/12/02 03:46:26;;;;;;;1.90;0.70;;;2.10;99.20;;;;;;2072859;28;20228;-65
2021/12/02 03:47:27;;;;;;;0.90;0.70;;;2.20;99.20;;;;;;2072880;28;20234;-66
2021/12/02 03:48:28;;;;;;;1.30;0.57;;;2.20;99.30;;;;;;2072738;28;20209;-65
2021/12/02 03:49:29;;;;;;;1.50;0.60;;;2.20;99.40;;;;;;2073459;28;20176;-65
2021/12/02 03:50:29;;;;;;;1.57;0.70;;;2.20;99.40;;;;;;2073161;28;20206;-65
2021/12/02 03:51:31;;;;;;;4.20;1.00;;;2.20;99.50;;;;;;2073428;28;20172;-65
2021/12/02 03:52:32;;;;;;;2.05;0.90;;;2.20;99.90;;;;;;2072933;28;20176;-64
2021/12/02 03:53:33;;;;;;;1.50;0.90;;;2.20;99.90;;;;;;2072728;28;20268;-65
2021/12/02 03:54:33;;;;;;;3.85;1.15;;;2.20;99.90;;;;;;2073323;28;20203;-65
2021/12/02 03:55:34;;;;;;;1.23;0.97;;;2.20;99.90;;;;;;2073506;28;20184;-65
2021/12/02 03:56:35;;;;;;;1.50;0.90;;;2.30;99.90;;;;;;2073301;28;20707;-64
2021/12/02 03:57:35;;;;;;;1.20;0.90;;;2.30;99.30;;;;;;2072829;28;20176;-64
2021/12/02 03:58:42;;;;;;;2.80;0.97;;;2.30;99.50;;;;;;2072757;28;20235;-65
2021/12/02 03:59:43;;;;;;;2.15;0.80;;;2.30;99.70;;;;;;2073213;28;20205;-65
2021/12/02 04:00:44;;;;;;;2.63;0.80;;;2.30;99.70;;;;;;2072639;28;20246;-65
2021/12/02 04:01:44;;;;;;;3.03;0.80;;;2.30;99.70;;;;;;2072751;28;20182;-65
2021/12/02 04:02:45;;;;;;;2.37;1.10;;;2.30;99.80;;;;;;2072669;28;20180;-66
2021/12/02 04:03:46;;;;;;;3.37;0.73;;;2.30;99.40;;;;;;2072649;28;20640;-65
2021/12/02 04:04:47;;;;;;;0.80;0.70;;;2.30;99.60;;;;;;2072549;28;20179;-66
2021/12/02 04:05:48;;;;;;;1.00;0.70;;;2.30;99.60;;;;;;2072797;28;20187;-65
2021/12/02 04:06:49;;;;;;;1.73;1.10;;;2.30;99.10;;;;;;2073322;28;20560;-66
2021/12/02 04:07:50;;;;;;;0.95;0.70;;;2.20;98.70;;;;;;2073096;28;20649;-65
2021/12/02 04:08:55;;;;;;;2.53;1.00;;;2.20;98.60;;;;;;2073093;28;20648;-66
2021/12/02 04:09:56;;;;;;;0.95;0.77;;;2.20;98.60;;;;;;2072436;28;20166;-65
2021/12/02 04:11:13;;;;;;;1.43;0.77;;;2.20;98.40;;;;;;2072664;28;20589;-65
2021/12/02 04:12:54;;;;;;;0.60;0.60;;;2.20;98.50;;;;;;2072721;28;20227;-65
2021/12/02 04:13:51;;;;;;;1.50;0.80;;;2.20;98.70;;;;;;2070809;28;20202;-66
2021/12/02 04:16:03;;;;;;;1.48;0.70;;;2.20;98.50;;;;;;2073528;28;20173;-65
2021/12/02 04:17:06;;;;;;;1.52;0.90;;;2.20;98.60;;;;;;2073299;28;20225;-65
2021/12/02 04:18:07;;;;;;;0.80;0.70;;;2.20;98.80;;;;;;2072684;28;20183;-65
2021/12/02 04:19:10;;;;;;;1.55;0.65;;;2.10;98.90;;;;;;2072684;28;20223;-65
2021/12/02 04:20:17;;;;;;;0.68;0.63;;;2.10;98.80;;;;;;2072823;28;20232;-65
2021/12/02 04:21:17;;;;;;;1.65;0.65;;;2.10;98.90;;;;;;2073386;28;20175;-65
2021/12/02 04:22:18;;;;;;;1.33;0.60;;;2.10;99.20;;;;;;2072932;28;20180;-65
2021/12/02 04:23:19;;;;;;;1.20;0.60;;;2.10;99.10;;;;;;2072777;28;20270;-65
2021/12/02 04:24:21;;;;;;;1.10;0.70;;;2.10;98.70;;;;;;2073385;28;20186;-66
2021/12/02 04:25:24;;;;;;;0.50;0.50;;;2.10;98.90;;;;;;2072475;28;20183;-65
2021/12/02 04:26:25;;;;;;;1.85;0.63;;;2.10;99.30;;;;;;2072510;28;20180;-65
2021/12/02 04:27:25;;;;;;;2.53;0.77;;;2.10;98.70;;;;;;2072536;28;20180;-65
2021/12/02 04:28:26;;;;;;;0.60;0.60;;;2.10;98.60;;;;;;2072676;28;20179;-65
2021/12/02 04:29:27;;;;;;;1.77;0.70;;;2.20;98.90;;;;;;2073051;28;20188;-66
2021/12/02 04:30:28;;;;;;;2.63;0.77;;;2.10;98.90;;;;;;2072831;28;20192;-66
2021/12/02 04:31:29;;;;;;;1.00;0.77;;;2.10;99.10;;;;;;2072415;28;20580;-66
2021/12/02 04:32:29;;;;;;;1.43;0.70;;;2.10;99.40;;;;;;2072551;28;20315;-66
2021/12/02 04:33:30;;;;;;;0.60;0.60;;;2.10;99.40;;;;;;2072621;28;20207;-66
2021/12/02 04:34:31;;;;;;;2.53;1.58;;;2.10;99.30;;;;;;2073178;28;20663;-65
2021/12/02 04:35:32;;;;;;;3.73;2.13;;;2.10;99.60;;;;;;2073074;28;20187;-66
2021/12/02 04:36:32;;;;;;;3.00;1.20;;;2.10;99.80;;;;;;2073024;28;20186;-66
2021/12/02 04:37:33;;;;;;;1.50;0.93;;;2.20;99.90;;;;;;2073097;28;20274;-66
2021/12/02 04:38:35;;;;;;;1.40;1.00;;;2.20;99.90;;;;;;2072992;28;20185;-66
2021/12/02 04:39:36;;;;;;;2.72;1.23;;;2.20;99.90;;;;;;2072213;28;20187;-66
2021/12/02 04:40:41;;;;;;;3.73;1.33;;;2.20;99.90;;;;;;2072300;28;20237;-65
2021/12/02 04:41:42;;;;;;;0.95;0.70;;;2.20;99.90;;;;;;2073016;28;20169;-66
2021/12/02 04:42:43;;;;;;;1.63;0.90;;;2.20;99.90;;;;;;2072980;28;20196;-65
2021/12/02 04:43:44;;;;;;;1.63;1.02;;;2.20;99.90;;;;;;2073037;28;20661;-66
2021/12/02 04:44:45;;;;;;;3.10;1.17;;;2.20;99.90;;;;;;2072963;28;20187;-66
2021/12/02 04:45:45;;;;;;;3.87;1.83;;;2.10;99.90;;;;;;2073056;28;20181;-66
2021/12/02 04:46:46;;;;;;;4.37;1.80;;;2.10;99.90;;;;;;2072973;28;20182;-66
2021/12/02 04:47:47;;;;;;;4.90;1.50;;;2.10;99.90;;;;;;2072937;28;20704;-65
2021/12/02 04:48:47;;;;;;;4.53;2.07;;;2.10;99.90;;;;;;2072899;28;20266;-66
2021/12/02 04:49:48;;;;;;;4.13;1.87;;;2.20;99.90;;;;;;2072720;28;20199;-66
2021/12/02 04:50:50;;;;;;;4.37;1.40;;;2.10;99.90;;;;;;2072896;28;20632;-66
2021/12/02 04:51:51;;;;;;;3.70;1.50;;;2.10;99.90;;;;;;2072960;28;20536;-66
2021/12/02 04:52:53;;;;;;;1.57;1.00;;;2.10;99.90;;;;;;2072866;28;20207;-66
2021/12/02 04:53:53;;;;;;;2.90;1.10;;;2.20;99.90;;;;;;2072996;28;20189;-65
2021/12/02 04:54:54;;;;;;;3.10;1.40;;;2.10;99.90;;;;;;2072943;28;20296;-66
2021/12/02 04:55:55;;;;;;;3.03;1.47;;;2.20;99.90;;;;;;2072915;28;20192;-66
2021/12/02 04:56:55;;;;;;;5.10;2.63;;;2.10;99.90;;;;;;2072271;28;20186;-65
2021/12/02 04:57:56;;;;;;;4.60;1.97;;;2.10;99.90;;;;;;2064028;28;20182;-66
2021/12/02 04:58:57;;;;;;;0.93;0.80;;;2.10;99.90;;;;;;2072274;28;20223;-66
2021/12/02 04:59:58;;;;;;;4.47;1.50;;;2.10;99.90;;;;;;2072767;28;20218;-66
2021/12/02 05:00:58;;;;;;;3.43;1.80;;;2.10;99.90;;;;;;2072718;28;20218;-66
2021/12/02 05:01:59;;;;;;;3.03;1.20;;;2.10;99.90;;;;;;2072983;28;20193;-66
2021/12/02 05:03:00;;;;;;;1.30;1.03;;;2.10;99.90;;;;;;2072852;28;20668;-65
2021/12/02 05:04:01;;;;;;;3.47;1.10;;;2.10;99.90;;;;;;2072961;28;20273;-66
2021/12/02 05:05:02;;;;;;;0.80;0.80;;;2.10;99.90;;;;;;2072864;28;20267;-66
2021/12/02 05:06:02;;;;;;;0.80;0.60;;;2.10;99.90;;;;;;2072295;28;20192;-66
2021/12/02 05:07:03;;;;;;;1.13;0.77;;;2.00;99.90;;;;;;2072252;28;20196;-66
2021/12/02 05:08:04;;;;;;;1.93;0.77;;;2.00;99.90;;;;;;2072299;28;20263;-66
2021/12/02 05:09:05;;;;;;;1.58;0.68;;;2.00;99.90;;;;;;2071754;28;20191;-66
2021/12/02 05:10:09;;;;;;;1.43;0.60;;;2.00;99.90;;;;;;2072439;28;20237;-66
2021/12/02 05:11:09;;;;;;;1.05;0.60;;;2.00;99.90;;;;;;2072174;28;20238;-66
2021/12/02 05:12:10;;;;;;;0.77;0.70;;;2.00;99.90;;;;;;2064207;28;20275;-66
2021/12/02 05:13:11;;;;;;;3.43;1.13;;;2.00;99.90;;;;;;2072223;28;20179;-66
2021/12/02 05:14:12;;;;;;;2.23;0.93;;;2.00;99.90;;;;;;2072224;28;20924;-66
2021/12/02 05:15:13;;;;;;;1.00;0.90;;;2.00;99.90;;;;;;2071875;28;20184;-66
2021/12/02 05:16:14;;;;;;;1.57;0.90;;;2.00;99.90;;;;;;2072891;28;20800;-66
2021/12/02 05:17:14;;;;;;;3.53;1.10;;;2.00;99.90;;;;;;2072833;28;20178;-66
2021/12/02 05:18:15;;;;;;;2.20;1.10;;;2.00;99.90;;;;;;2072858;28;20222;-66
2021/12/02 05:19:16;;;;;;;1.20;1.00;;;2.00;99.90;;;;;;2072813;28;20186;-66
2021/12/02 05:20:16;;;;;;;1.77;0.80;;;2.00;99.90;;;;;;2073547;28;20182;-66
2021/12/02 05:21:18;;;;;;;2.50;0.80;;;2.00;99.90;;;;;;2073945;28;20198;-66
2021/12/02 05:22:18;;;;;;;1.00;0.75;;;2.00;99.90;;;;;;2074369;28;20174;-65
2021/12/02 05:23:19;;;;;;;1.73;0.70;;;2.00;99.90;;;;;;2073779;28;20174;-66
2021/12/02 05:24:20;;;;;;;0.97;0.60;;;1.90;99.90;;;;;;2065603;28;20183;-65
2021/12/02 05:25:21;;;;;;;2.10;0.87;;;1.90;99.90;;;;;;2073827;28;20192;-66
2021/12/02 05:26:23;;;;;;;1.07;0.60;;;1.90;99.90;;;;;;2074380;28;20180;-66
2021/12/02 05:27:24;;;;;;;2.60;0.80;;;2.00;99.90;;;;;;2073779;28;20181;-65
2021/12/02 05:28:25;;;;;;;0.93;0.82;;;2.00;99.90;;;;;;2073636;28;20188;-66
2021/12/02 05:29:26;;;;;;;1.93;1.23;;;1.90;99.90;;;;;;2074406;28;20169;-65
2021/12/02 05:30:27;;;;;;;2.90;1.50;;;1.90;99.90;;;;;;2074181;28;20198;-66
2021/12/02 05:31:27;;;;;;;1.93;1.20;;;1.90;99.90;;;;;;2074434;28;20175;-66
2021/12/02 05:32:31;;;;;;;2.07;1.23;;;1.90;99.90;;;;;;2074450;28;20187;-66
2021/12/02 05:33:31;;;;;;;1.88;1.75;;;1.90;99.90;;;;;;2074385;28;20178;-66
2021/12/02 05:34:32;;;;;;;2.20;1.20;;;1.80;99.90;;;;;;2073590;28;20660;-65
2021/12/02 05:35:33;;;;;;;1.70;1.20;;;1.80;99.90;;;;;;2073630;28;20698;-66
2021/12/02 05:36:34;;;;;;;2.10;1.70;;;1.70;99.90;;;;;;2081813;28;20252;-66
2021/12/02 05:37:34;;;;;;;2.60;1.63;;;1.70;99.90;;;;;;2081916;28;20183;-66
2021/12/02 05:38:35;;;;;;;3.43;1.13;;;1.70;99.90;;;;;;2074360;28;20651;-66
2021/12/02 05:39:36;;;;;;;3.17;0.93;;;1.70;99.90;;;;;;2074324;28;20240;-66
2021/12/02 05:40:37;;;;;;;1.17;0.80;;;1.70;99.90;;;;;;2074276;28;20211;-66
2021/12/02 05:41:37;;;;;;;1.20;0.80;;;1.70;99.90;;;;;;2073825;28;20190;-66
2021/12/02 05:42:38;;;;;;;3.70;0.80;;;1.70;99.90;;;;;;2073842;28;20214;-66
2021/12/02 05:43:39;;;;;;;1.90;0.97;;;1.70;99.90;;;;;;2074393;28;20210;-66
2021/12/02 05:44:40;;;;;;;1.10;0.77;;;1.70;99.90;;;;;;2073820;28;20251;-66